Park City, UT

8:08 PM MDT on May 24, 2015 (GMT -0600)
Salt Lake City International | | Change Station
CLOSE
Current Station
Airport
Location: Salt Lake City,
Elevation: 4226 ft
Nearby Weather Stations

Elev 4226 ft 40.77 °N, 111.97 °W | Updated 15 minutes ago

Overcast
Overcast
63 °F
Feels Like 63 °F
N
9
Wind Variable Wind from WNW

Today
High -- | Low -- °F
--% Chance of Precip.
Yesterday
High -- | Low -- °F
Precip. -- in
6:01 AM 8:44 PM
Waxing Crescent, 44% visible
Pressure 29.79 in
Visibility 10.0 miles
Clouds Few 4500 ft
Scattered Clouds 8000 ft
Mostly Cloudy 11000 ft
Dew Point 43 °F
Humidity 48%
Rainfall 0.04 in
Snow Depth Not available.
UV 0 out of 12
Pollen 5.40 out of 12
Air Quality Not available.
Flu Activity Sporadic
METAR KSLC 250153Z 30008KT 10SM FEW045 SCT080 BKN110 17/06 A2988 RMK AO2 SLP087 T01720061

More Conditions Fewer Conditions

Pressure 29.79 in
Visibility 10.0 miles
Clouds Few 4500 ft
Scattered Clouds 8000 ft
Mostly Cloudy 11000 ft
Dew Point 43 °F
Humidity 48%
Rainfall 0.04 in
Snow Depth Not available.
UV 0 out of 12
Pollen 5.40 out of 12
Air Quality Not available.
Flu Activity Sporadic
METAR KSLC 250153Z 30008KT 10SM FEW045 SCT080 BKN110 17/06 A2988 RMK AO2 SLP087 T01720061

More Conditions Fewer Conditions

Nowcast | as of 8:05 PM MDT on May 24, 2015

Scattered showers and isolated thunderstorms will continue over portions of northern Utah this evening. The strongest storms at 755 PM were located along the northern Wasatch front from West Warren...to Plain City...to North Ogden. Another area of strong storms were over Promontory Point. Expect occasional cloud to ground lightning...locally heavy rain...gusty winds and small hail with the strongest storms.

×

10-Day Weather Forecast

Almanac

Astronomy

May. 24, 2015 Rise Set
Actual Time
Civil Twilight
Nautical Twilight
Astronomical Twilight
Moon
Length of Visible Light
Length of Day
Tomorrow will be .
, % of the Moon is Illuminated

Today's Extremes

State Highs State Lows

Community

WunderPhotos

Upload Photos

1,823,924 photos uploaded!

WunderBlogs® & News

Nearby

Air Quality

  Air Quality AQ Index Pollutant
Not available.

Snow Depth

Station Depth Elevation

Earthquake Activity

City Distance Mag. Time & Date
Minimum magnitude displayed is 2.5.

Coastal Water Temperatures

Place Temperature

Stations

Nearby Weather Stations

Station Location Temp. Windchill Dew Point Humidity Wind Precip. Elev Updated Type